ěÝzenÝ letovÚho provozu ╚eskÚ republiky
Letiste: LKKB Aktualizace: 07.04.2020 04:00:27  UTC
 METAR LKKB 07.04. 04:00 ...
METAR LKKB 070400Z 13006KT CAVOK 05/M03 Q1029 NOSIG RMK BLU BLU=
 TAF LKKB 06.04. 23:00 ...
TAF LKKB 062300Z 0700/0800 11005KT CAVOK=